Time;durP1;ratioP1;P1;durP2;ratioP2;P2;SDS_P1;SDS_P2;PMS_P1;PMS_P2;Temp;Humidity;BMP_temperature;BMP_pressure;BME280_temperature;BME280_humidity;BME280_pressure;Samples;Min_cycle;Max_cycle;Signal;HPM_P1;HPM_P2
2022/01/07 05:04:01;;;;;;;7.45;4.93;;;;;;;-3.07;82.45;101144.91;6586317;26;20100;-79
2022/01/07 05:07:04;;;;;;;7.75;4.43;;;;;;;-3.14;80.67;101154.00;6635050;26;34077;-79
2022/01/07 05:10:12;;;;;;;10.05;5.32;;;;;;;-3.20;80.04;101152.50;6633931;26;34838;-82
2022/01/07 05:13:15;;;;;;;8.13;4.93;;;;;;;-3.24;80.68;101152.75;6646462;26;33657;-82
2022/01/07 05:16:18;;;;;;;7.28;4.80;;;;;;;-3.18;79.85;101156.88;6637518;26;33773;-79
2022/01/07 05:19:21;;;;;;;8.48;4.90;;;;;;;-3.27;80.18;101159.00;6633082;26;33472;-79
2022/01/07 05:22:23;;;;;;;10.60;5.85;;;;;;;-3.29;82.92;101160.84;6633019;26;33854;-79
2022/01/07 05:25:27;;;;;;;10.48;5.45;;;;;;;-3.22;81.14;101157.03;6633301;26;33661;-79
2022/01/07 05:28:30;;;;;;;10.52;5.12;;;;;;;-3.18;81.19;101165.63;6633175;26;33528;-80
2022/01/07 05:31:33;;;;;;;8.00;4.90;;;;;;;-3.27;81.78;101163.41;6633551;26;33840;-80
2022/01/07 05:34:36;;;;;;;7.68;5.00;;;;;;;-3.25;81.79;101167.66;6633849;26;33752;-80
2022/01/07 05:37:39;;;;;;;5.80;4.35;;;;;;;-3.31;82.07;101170.56;6633637;26;33642;-80
2022/01/07 05:40:42;;;;;;;8.95;5.10;;;;;;;-3.35;81.78;101168.16;6633603;26;34199;-80
2022/01/07 05:43:45;;;;;;;9.05;5.45;;;;;;;-3.35;82.03;101171.66;6633709;26;33158;-80
2022/01/07 05:46:48;;;;;;;8.70;5.05;;;;;;;-3.29;81.49;101168.75;6634156;26;34704;-81
2022/01/07 05:49:51;;;;;;;9.27;5.00;;;;;;;-3.32;81.10;101181.19;6633776;26;33450;-81
2022/01/07 05:52:53;;;;;;;9.15;5.28;;;;;;;-3.36;82.68;101167.31;6634168;26;33438;-81
2022/01/07 05:55:56;;;;;;;7.80;5.40;;;;;;;-3.40;82.59;101173.63;6634126;26;33512;-81
2022/01/07 05:58:59;;;;;;;9.73;5.70;;;;;;;-3.39;82.88;101182.37;6637357;26;33953;-80
2022/01/07 06:02:02;;;;;;;9.32;5.30;;;;;;;-3.33;82.81;101185.63;6638583;26;34798;-80
2022/01/07 06:05:06;;;;;;;7.68;5.12;;;;;;;-3.26;81.85;101194.94;6638370;26;33388;-81
2022/01/07 06:08:09;;;;;;;9.20;5.18;;;;;;;-3.36;83.27;101185.75;6634134;26;34408;-81
2022/01/07 06:11:13;;;;;;;14.10;5.18;;;;;;;-3.46;83.59;101187.91;6634275;26;34313;-80
2022/01/07 06:14:15;;;;;;;11.77;6.07;;;;;;;-3.30;82.96;101189.87;6633940;26;34492;-81
2022/01/07 06:17:20;;;;;;;9.98;5.10;;;;;;;-3.28;83.06;101193.28;6634951;26;34301;-80
2022/01/07 06:20:23;;;;;;;11.25;6.47;;;;;;;-3.42;83.43;101188.66;6637144;26;35149;-81
2022/01/07 06:23:26;;;;;;;9.55;5.50;;;;;;;-3.37;84.04;101193.69;6634635;26;34323;-81
2022/01/07 06:26:29;;;;;;;8.75;5.43;;;;;;;-3.47;85.46;101195.91;6634313;26;33801;-80
2022/01/07 06:29:31;;;;;;;7.82;5.62;;;;;;;-3.44;84.82;101203.66;6633866;26;34371;-80
2022/01/07 06:32:34;;;;;;;10.80;5.82;;;;;;;-3.49;85.53;101211.75;6633545;26;33580;-81
2022/01/07 06:35:37;;;;;;;11.40;5.75;;;;;;;-3.62;85.46;101210.59;6633458;26;34242;-80
2022/01/07 06:38:40;;;;;;;10.35;6.00;;;;;;;-3.61;86.66;101214.91;6634393;26;33861;-80
2022/01/07 06:41:42;;;;;;;11.05;6.20;;;;;;;-3.40;84.78;101217.53;6651023;26;33641;-80
2022/01/07 06:44:45;;;;;;;12.37;5.72;;;;;;;-3.31;85.31;101215.34;6652835;26;34947;-80
2022/01/07 06:47:48;;;;;;;13.27;6.57;;;;;;;-3.39;85.02;101225.38;6650122;26;34283;-80
2022/01/07 06:50:50;;;;;;;11.20;6.15;;;;;;;-3.38;83.51;101224.44;6636115;26;34320;-80
2022/01/07 06:53:53;;;;;;;11.57;6.12;;;;;;;-3.46;85.32;101227.41;6639529;26;33984;-80
2022/01/07 06:56:56;;;;;;;12.60;7.00;;;;;;;-3.46;86.21;101224.78;6651058;26;34930;-79
2022/01/07 06:59:59;;;;;;;12.85;6.85;;;;;;;-3.44;84.93;101237.88;6632990;26;33303;-80
2022/01/07 07:03:01;;;;;;;16.23;7.20;;;;;;;-3.37;87.42;101235.81;6648110;26;33790;-80
2022/01/07 07:06:04;;;;;;;19.30;7.15;;;;;;;-3.34;87.29;101227.78;6633597;26;34883;-80
2022/01/07 07:09:07;;;;;;;19.75;7.30;;;;;;;-3.27;87.47;101234.50;6645801;26;33589;-80
2022/01/07 07:12:12;;;;;;;12.93;7.40;;;;;;;-3.21;86.66;101231.59;6653322;26;33976;-80
2022/01/07 07:15:15;;;;;;;13.73;7.70;;;;;;;-3.11;85.27;101238.16;6652852;26;33849;-80
2022/01/07 07:18:18;;;;;;;13.77;6.90;;;;;;;-2.98;84.50;101241.09;6639099;26;33996;-80
2022/01/07 07:21:21;;;;;;;15.63;6.60;;;;;;;-2.64;82.95;101236.87;6633301;26;34875;-80
2022/01/07 07:24:24;;;;;;;11.75;6.18;;;;;;;-2.47;81.44;101234.31;6632492;26;33884;-80
2022/01/07 07:27:26;;;;;;;14.25;6.50;;;;;;;-2.35;80.69;101243.41;6633805;26;33247;-80
2022/01/07 07:30:36;;;;;;;10.68;6.20;;;;;;;-2.20;80.14;101234.75;6633533;26;33822;-80
2022/01/07 07:36:49;;;;;;;14.52;7.32;;;;;;;-1.85;79.13;101238.28;6632701;26;33888;-80
2022/01/07 07:39:51;;;;;;;13.18;7.40;;;;;;;-1.78;78.49;101238.84;6637137;26;34529;-81
2022/01/07 07:42:54;;;;;;;11.20;7.47;;;;;;;-1.63;78.78;101245.12;6639331;26;33739;-80
2022/01/07 07:46:01;;;;;;;12.85;6.50;;;;;;;-1.67;78.13;101238.28;6637906;26;33457;-81
2022/01/07 07:49:05;;;;;;;14.23;6.78;;;;;;;-1.53;76.99;101233.16;6633847;26;33576;-81
2022/01/07 07:52:07;;;;;;;10.45;5.78;;;;;;;-1.28;76.73;101248.59;6633718;26;34197;-81
2022/01/07 07:55:11;;;;;;;12.70;6.53;;;;;;;-0.84;75.05;101244.50;6633770;26;33224;-81
2022/01/07 07:58:13;;;;;;;13.35;6.55;;;;;;;-0.53;72.18;101241.84;6632971;26;34353;-80
2022/01/07 08:01:18;;;;;;;12.50;7.03;;;;;;;-0.54;72.37;101245.44;6633108;26;33511;-80
2022/01/07 08:04:21;;;;;;;13.30;6.50;;;;;;;-0.62;72.44;101247.66;6633529;26;33360;-80
2022/01/07 08:07:24;;;;;;;14.77;7.75;;;;;;;-0.76;73.28;101250.22;6649828;26;34164;-80
2022/01/07 08:10:27;;;;;;;17.92;7.30;;;;;;;-0.84;72.77;101249.78;6641404;26;33663;-80
2022/01/07 08:13:31;;;;;;;15.30;6.87;;;;;;;-0.80;73.89;101253.97;6633469;26;33451;-80
2022/01/07 08:16:34;;;;;;;13.65;7.20;;;;;;;-0.73;74.11;101255.34;6633679;26;33602;-80
2022/01/07 08:19:36;;;;;;;14.13;7.18;;;;;;;-0.56;73.39;101257.91;6633692;26;33563;-80
2022/01/07 08:22:40;;;;;;;16.15;7.47;;;;;;;-0.54;73.94;101260.47;6634122;26;34521;-80
2022/01/07 08:25:45;;;;;;;14.98;7.37;;;;;;;-0.39;72.51;101254.31;6635316;26;33594;-80
2022/01/07 08:28:58;;;;;;;14.63;7.55;;;;;;;-0.35;72.19;101261.16;6635082;26;33910;-80
2022/01/07 08:35:23;;;;;;;14.20;7.40;;;;;;;-0.17;70.07;101259.28;6628497;26;33456;-80
2022/01/07 08:38:26;;;;;;;13.00;7.20;;;;;;;-0.14;71.12;101253.81;6639775;26;34217;-80
2022/01/07 08:41:30;;;;;;;12.23;7.20;;;;;;;-0.07;69.76;101255.16;6639359;26;34641;-80
2022/01/07 08:44:33;;;;;;;11.32;6.32;;;;;;;-0.11;70.27;101258.06;6634195;26;33326;-80
2022/01/07 08:47:36;;;;;;;12.13;7.18;;;;;;;0.01;67.65;101262.66;6634326;26;34336;-80
2022/01/07 08:50:39;;;;;;;11.30;6.78;;;;;;;0.05;66.73;101268.63;6636437;26;33528;-80
2022/01/07 08:53:42;;;;;;;14.55;7.00;;;;;;;0.09;65.48;101263.06;6638302;26;33302;-79
2022/01/07 08:56:45;;;;;;;12.07;6.85;;;;;;;0.10;64.87;101267.41;6639534;26;33827;-80
2022/01/07 08:59:49;;;;;;;11.43;7.05;;;;;;;0.24;64.43;101263.97;6637843;26;33526;-79
2022/01/07 09:02:51;;;;;;;14.43;6.97;;;;;;;0.31;65.35;101264.47;6633502;26;33813;-79
2022/01/07 09:05:54;;;;;;;14.57;7.72;;;;;;;0.24;64.33;101269.28;6632737;26;33453;-78
2022/01/07 09:08:57;;;;;;;17.25;7.25;;;;;;;0.36;64.70;101259.75;6633100;26;33557;-81
2022/01/07 09:12:00;;;;;;;10.98;6.55;;;;;;;0.63;63.63;101258.09;6643001;26;34880;-81
2022/01/07 09:15:03;;;;;;;11.55;6.93;;;;;;;0.79;61.51;101242.12;6637889;26;34098;-81
2022/01/07 09:18:10;;;;;;;12.50;7.18;;;;;;;0.77;60.23;101240.53;6634280;26;34030;-82
2022/01/07 09:21:13;;;;;;;12.50;6.97;;;;;;;0.77;60.76;101240.53;6633753;26;34799;-87
2022/01/07 09:24:16;;;;;;;13.10;7.28;;;;;;;0.82;60.20;101247.25;6635260;26;33183;-86
2022/01/07 09:27:18;;;;;;;14.55;6.95;;;;;;;1.00;60.24;101241.75;6635998;26;33253;-85
2022/01/07 09:30:22;;;;;;;13.50;6.80;;;;;;;1.13;58.31;101240.03;6637764;26;33592;-83
2022/01/07 09:33:24;;;;;;;13.57;7.22;;;;;;;1.07;57.92;101235.97;6634053;26;33949;-80
2022/01/07 09:36:47;;;;;;;16.95;7.47;;;;;;;1.00;58.07;101226.69;6635871;26;34037;-80
2022/01/07 09:39:50;;;;;;;13.82;7.25;;;;;;;0.93;60.41;101222.72;6634621;26;33377;-81
2022/01/07 09:42:58;;;;;;;11.00;5.80;;;;;;;1.10;58.75;101226.97;6633295;26;33317;-80
2022/01/07 09:46:01;;;;;;;9.77;5.90;;;;;;;1.17;56.04;101217.69;6633804;26;33425;-81
2022/01/07 09:49:04;;;;;;;16.48;6.80;;;;;;;1.28;55.44;101217.84;6633097;26;33874;-80
2022/01/07 09:52:09;;;;;;;12.30;6.55;;;;;;;1.45;56.15;101208.81;6633400;26;34103;-81
2022/01/07 09:55:13;;;;;;;17.23;6.15;;;;;;;1.56;57.57;101206.31;6633448;26;33605;-81
2022/01/07 09:58:16;;;;;;;11.12;6.00;;;;;;;1.78;55.17;101191.62;6633075;26;34342;-80
2022/01/07 10:01:20;;;;;;;10.18;5.43;;;;;;;1.77;53.82;101198.75;6632779;26;32138;-81
2022/01/07 10:04:33;;;;;;;9.63;5.78;;;;;;;1.64;52.50;101189.03;6632726;26;33460;-81
2022/01/07 10:07:36;;;;;;;9.95;5.30;;;;;;;1.58;53.36;101177.91;6632541;26;33761;-81
2022/01/07 10:10:39;;;;;;;25.95;6.15;;;;;;;1.65;52.31;101196.06;6632725;26;33841;-81
2022/01/07 10:13:44;;;;;;;10.07;5.60;;;;;;;1.72;53.53;101189.37;6632882;26;33641;-81
2022/01/07 10:16:47;;;;;;;10.32;5.55;;;;;;;1.79;51.74;101185.41;6631931;26;33867;-81
2022/01/07 10:19:49;;;;;;;11.02;5.15;;;;;;;1.79;52.30;101180.09;6612682;26;34348;-81
2022/01/07 10:22:56;;;;;;;6.97;4.95;;;;;;;1.88;53.93;101170.66;6632541;26;34210;-81
2022/01/07 10:25:59;;;;;;;11.07;5.12;;;;;;;1.99;52.15;101170.75;6632372;26;32881;-80
2022/01/07 10:29:02;;;;;;;7.68;5.05;;;;;;;1.84;51.37;101161.19;6632697;26;33945;-81
2022/01/07 10:32:24;;;;;;;7.97;4.85;;;;;;;1.91;52.45;101158.03;6635028;26;32963;-81
2022/01/07 10:35:28;;;;;;;7.22;4.40;;;;;;;2.02;51.51;101157.31;6634715;26;33555;-81
2022/01/07 10:38:30;;;;;;;8.38;4.62;;;;;;;1.91;50.38;101151.87;6632307;26;33642;-80
2022/01/07 10:41:33;;;;;;;9.52;4.55;;;;;;;1.96;50.60;101141.75;6633363;26;33545;-80
2022/01/07 10:45:04;;;;;;;7.10;4.80;;;;;;;1.98;50.95;101139.88;6633366;26;33421;-81
2022/01/07 10:48:07;;;;;;;7.57;4.55;;;;;;;1.96;51.94;101128.50;6633336;26;33089;-81
2022/01/07 10:51:13;;;;;;;6.85;4.30;;;;;;;2.07;50.21;101123.31;6633984;26;33258;-81
2022/01/07 10:54:19;;;;;;;9.50;4.90;;;;;;;2.01;50.39;101127.22;6646581;26;33079;-81
2022/01/07 10:57:39;;;;;;;10.15;5.05;;;;;;;2.17;51.52;101121.72;6644598;26;34862;-81
2022/01/07 11:00:42;;;;;;;10.40;4.87;;;;;;;2.35;50.08;101124.06;6634094;26;34285;-81
2022/01/07 11:03:50;;;;;;;7.97;4.78;;;;;;;2.08;49.91;101114.41;6633816;26;34041;-81
2022/01/07 11:07:00;;;;;;;8.63;4.78;;;;;;;2.04;51.89;101104.91;6641610;26;34319;-81
2022/01/07 11:10:05;;;;;;;8.52;4.85;;;;;;;2.19;50.82;101110.97;6638445;26;34109;-81
2022/01/07 11:13:11;;;;;;;6.95;4.55;;;;;;;2.21;50.14;101101.97;6637713;26;34508;-81
2022/01/07 11:16:14;;;;;;;7.43;4.57;;;;;;;2.33;50.82;101113.53;6633308;26;34363;-81
2022/01/07 11:19:22;;;;;;;8.20;3.95;;;;;;;2.58;50.11;101115.34;6633690;26;33552;-81
2022/01/07 11:22:26;;;;;;;5.22;3.90;;;;;;;2.64;47.79;101100.78;6633425;26;34040;-82
2022/01/07 11:25:32;;;;;;;5.37;3.92;;;;;;;2.72;46.34;101088.63;6634195;26;34457;-81
2022/01/07 11:28:37;;;;;;;5.18;4.12;;;;;;;2.77;46.44;101085.63;6636014;26;33370;-81
2022/01/07 11:31:40;;;;;;;4.78;3.83;;;;;;;2.91;45.76;101077.50;6634877;26;33424;-81
2022/01/07 11:34:42;;;;;;;7.50;4.10;;;;;;;3.36;46.47;101077.75;6634521;26;33634;-81
2022/01/07 11:37:47;;;;;;;5.55;3.80;;;;;;;3.57;46.05;101074.47;6634926;26;33627;-81
2022/01/07 11:40:50;;;;;;;6.22;3.90;;;;;;;3.70;44.46;101071.72;6634982;26;33496;-81
2022/01/07 11:43:53;;;;;;;6.82;4.40;;;;;;;3.74;44.77;101068.69;6634545;26;34897;-81
2022/01/07 11:47:23;;;;;;;10.52;4.50;;;;;;;4.24;42.82;101071.06;6635388;26;33055;-82
2022/01/07 11:50:26;;;;;;;7.80;3.80;;;;;;;4.21;43.11;101061.53;6646583;26;33361;-81
2022/01/07 11:53:35;;;;;;;6.95;3.90;;;;;;;4.50;41.79;101050.34;6651281;26;34700;-82
2022/01/07 11:56:39;;;;;;;6.65;4.10;;;;;;;4.67;42.06;101049.03;6651922;26;34396;-81
2022/01/07 11:59:49;;;;;;;10.90;8.57;;;;;;;5.27;40.00;101046.84;6646048;26;34928;-85
2022/01/07 12:03:01;;;;;;;7.87;4.73;;;;;;;5.16;40.74;101045.88;6648825;26;34722;-83
2022/01/07 12:06:23;;;;;;;7.30;4.70;;;;;;;6.01;39.40;101041.50;6645055;26;34310;-82
2022/01/07 12:09:33;;;;;;;8.93;4.22;;;;;;;6.48;38.25;101044.53;6635470;26;33420;-80
2022/01/07 12:12:36;;;;;;;6.10;3.80;;;;;;;6.41;37.18;101040.72;6633071;26;33909;-81
2022/01/07 12:15:41;;;;;;;5.78;4.20;;;;;;;6.51;38.13;101038.91;6637582;26;33606;-82
2022/01/07 12:18:44;;;;;;;7.40;4.18;;;;;;;6.83;36.57;101033.37;6636727;26;33902;-81
2022/01/07 12:21:51;;;;;;;5.85;4.07;;;;;;;7.58;36.63;101026.53;6613392;26;33828;-82
2022/01/07 12:24:59;;;;;;;5.03;3.75;;;;;;;8.16;34.51;101029.09;6634004;26;34276;-81
2022/01/07 12:28:05;;;;;;;10.73;4.25;;;;;;;8.04;33.13;101022.19;6633688;26;34388;-81
2022/01/07 12:31:11;;;;;;;6.93;3.97;;;;;;;8.23;32.54;101012.41;6630640;26;34469;-82
2022/01/07 12:34:24;;;;;;;7.10;4.35;;;;;;;9.06;31.61;101015.91;6631806;26;33756;-82
2022/01/07 12:37:28;;;;;;;7.35;4.15;;;;;;;9.39;30.70;101000.09;6632626;26;33573;-82
2022/01/07 12:40:31;;;;;;;10.02;4.45;;;;;;;9.85;30.15;101000.81;6632924;26;33595;-82
2022/01/07 12:43:35;;;;;;;7.90;4.60;;;;;;;9.70;30.16;101001.38;6632809;26;33823;-80
2022/01/07 12:46:40;;;;;;;7.70;4.70;;;;;;;10.46;29.34;100989.06;6633210;26;34338;-82
2022/01/07 12:49:46;;;;;;;7.22;4.47;;;;;;;11.90;27.81;100986.03;6632688;26;33517;-82
2022/01/07 12:52:49;;;;;;;5.37;3.92;;;;;;;13.20;26.01;100983.78;6632195;26;33481;-83
2022/01/07 12:55:51;;;;;;;7.82;4.68;;;;;;;14.68;24.61;100975.87;6631893;26;33757;-83
2022/01/07 12:58:55;;;;;;;4.65;3.83;;;;;;;15.44;23.53;100970.81;6633212;26;33946;-83
2022/01/07 13:02:00;;;;;;;6.10;4.45;;;;;;;13.96;24.32;100988.22;6632504;26;33393;-82
2022/01/07 13:05:10;;;;;;;6.25;4.65;;;;;;;13.90;23.34;100974.59;6630218;26;33927;-83
2022/01/07 13:08:16;;;;;;;7.53;4.70;;;;;;;12.62;25.88;100959.81;6632536;26;34128;-83
2022/01/07 13:11:19;;;;;;;6.72;4.35;;;;;;;11.88;26.50;100969.22;6630943;26;34461;-81
2022/01/07 13:14:24;;;;;;;7.28;4.80;;;;;;;10.57;29.15;100959.16;6633285;26;34492;-84
2022/01/07 13:17:28;;;;;;;9.57;5.50;;;;;;;10.05;29.14;100967.31;6632745;26;34900;-85
2022/01/07 13:20:32;;;;;;;8.30;4.62;;;;;;;8.43;31.18;100963.06;6631410;26;33179;-82
2022/01/07 13:23:43;;;;;;;11.15;5.07;;;;;;;6.94;35.08;100965.50;6632580;26;33486;-83
2022/01/07 13:26:54;;;;;;;15.10;5.53;;;;;;;5.68;35.47;100966.72;6632754;26;34439;-81
2022/01/07 13:29:57;;;;;;;8.52;5.57;;;;;;;4.57;38.79;100952.91;6633012;26;34267;-81
2022/01/07 13:33:14;;;;;;;9.00;4.93;;;;;;;3.99;40.91;100962.91;6632324;26;34630;-80
2022/01/07 13:36:44;;;;;;;7.15;4.78;;;;;;;3.52;41.93;100968.31;6633437;26;33017;-80
2022/01/07 13:39:50;;;;;;;10.80;4.68;;;;;;;3.18;42.60;100954.06;6633902;26;33166;-80
2022/01/07 13:43:15;;;;;;;7.90;5.10;;;;;;;2.90;42.90;100958.81;6633956;26;34348;-82
2022/01/07 13:46:23;;;;;;;6.95;4.50;;;;;;;2.58;43.25;100953.19;6635068;26;34303;-81
2022/01/07 13:49:29;;;;;;;9.55;4.97;;;;;;;2.46;44.38;100952.28;6641167;26;33347;-81
2022/01/07 13:52:33;;;;;;;9.40;4.47;;;;;;;2.37;44.67;100942.34;6637901;26;33337;-81
2022/01/07 13:55:36;;;;;;;8.43;5.22;;;;;;;2.15;45.68;100945.66;6633819;26;34268;-81
2022/01/07 13:58:40;;;;;;;10.35;4.97;;;;;;;2.04;46.56;100940.25;6633702;26;35168;-82
2022/01/07 14:02:00;;;;;;;7.43;4.20;;;;;;;1.84;45.59;100943.47;6636200;26;34368;-82
2022/01/07 14:05:13;;;;;;;9.55;5.60;;;;;;;1.87;45.97;100940.59;6640604;26;33222;-82
2022/01/07 14:08:20;;;;;;;9.85;4.82;;;;;;;1.80;46.72;100937.53;6632378;26;33071;-85
2022/01/07 14:11:23;;;;;;;11.05;4.60;;;;;;;1.85;44.54;100932.78;6636875;26;33638;-82
2022/01/07 14:14:34;;;;;;;7.93;4.70;;;;;;;1.74;45.30;100935.31;6638253;26;33547;-82
2022/01/07 14:18:13;;;;;;;8.05;4.30;;;;;;;1.64;47.38;100944.88;6639428;26;33888;-81
2022/01/07 14:21:19;;;;;;;7.30;4.82;;;;;;;1.46;46.59;100937.22;6632918;26;33433;-82
2022/01/07 14:24:22;;;;;;;5.75;4.80;;;;;;;1.42;46.34;100934.91;6635287;26;33435;-81
2022/01/07 14:27:34;;;;;;;6.62;4.55;;;;;;;1.31;46.86;100932.97;6633340;26;33318;-81
2022/01/07 14:30:37;;;;;;;8.07;4.45;;;;;;;1.27;46.45;100928.84;6633005;26;34253;-81
2022/01/07 14:33:42;;;;;;;6.90;4.47;;;;;;;1.21;48.31;100932.75;6632982;26;33392;-82
2022/01/07 14:36:45;;;;;;;10.20;5.18;;;;;;;1.09;47.57;100933.59;6633365;26;33691;-82
2022/01/07 14:39:48;;;;;;;11.12;4.53;;;;;;;0.97;47.96;100932.63;6634088;26;33973;-81
2022/01/07 14:42:50;;;;;;;9.43;5.47;;;;;;;0.88;49.19;100933.22;6635187;26;33722;-81
2022/01/07 14:45:53;;;;;;;7.43;5.00;;;;;;;0.86;48.50;100932.47;6634545;26;33141;-82
2022/01/07 14:48:56;;;;;;;7.07;4.43;;;;;;;0.77;49.68;100930.44;6633575;26;33487;-81
2022/01/07 14:51:58;;;;;;;5.53;4.70;;;;;;;0.67;48.52;100928.41;6633983;26;33843;-80
2022/01/07 14:55:01;;;;;;;9.85;4.95;;;;;;;0.71;48.71;100937.00;6643204;26;33604;-80
2022/01/07 14:58:07;;;;;;;7.45;5.07;;;;;;;0.61;49.18;100936.72;6650100;26;36007;-80
2022/01/07 15:01:10;;;;;;;8.82;5.37;;;;;;;0.53;53.50;100938.19;6633579;26;33586;-80
2022/01/07 15:04:12;;;;;;;10.52;5.15;;;;;;;0.43;49.96;100933.47;6632523;26;33558;-81
2022/01/07 15:07:16;;;;;;;8.02;4.82;;;;;;;0.36;49.41;100934.81;6632820;26;33140;-80
2022/01/07 15:10:19;;;;;;;9.98;5.60;;;;;;;0.31;50.33;100939.56;6633079;26;33440;-80
2022/01/07 15:13:22;;;;;;;12.73;5.55;;;;;;;0.30;50.71;100927.28;6632895;26;33549;-80
2022/01/07 15:16:39;;;;;;;9.70;5.37;;;;;;;0.35;51.60;100932.25;6632814;26;33887;-80
2022/01/07 15:19:42;;;;;;;8.07;5.07;;;;;;;0.24;50.59;100932.13;6613942;26;33775;-80
2022/01/07 15:22:44;;;;;;;9.05;5.75;;;;;;;0.19;50.55;100940.34;6631534;26;34316;-80
2022/01/07 15:25:47;;;;;;;12.18;5.75;;;;;;;0.14;50.72;100942.44;6632534;26;34194;-80
2022/01/07 15:28:50;;;;;;;9.20;5.18;;;;;;;0.03;50.89;100943.13;6632669;26;34382;-83
2022/01/07 15:31:53;;;;;;;8.07;5.07;;;;;;;-0.11;51.54;100945.78;6632185;26;33553;-81
2022/01/07 15:34:56;;;;;;;9.70;5.72;;;;;;;-0.16;52.39;100943.41;6630281;26;35437;-81
2022/01/07 15:37:58;;;;;;;9.38;5.50;;;;;;;-0.19;52.39;100945.41;6629036;26;33138;-81
2022/01/07 15:41:03;;;;;;;9.93;5.35;;;;;;;-0.24;53.08;100956.25;6631216;26;33709;-81
2022/01/07 15:44:07;;;;;;;9.05;5.70;;;;;;;-0.20;53.49;100954.28;6630810;26;34255;-81
2022/01/07 15:47:10;;;;;;;9.35;5.90;;;;;;;-0.34;53.18;100944.53;6631486;26;33442;-79
2022/01/07 15:50:13;;;;;;;10.15;6.00;;;;;;;-0.43;53.94;100940.66;6632938;26;34424;-80
2022/01/07 15:53:16;;;;;;;11.30;5.95;;;;;;;-0.50;53.54;100934.91;6632240;26;33394;-80
2022/01/07 15:56:19;;;;;;;10.50;6.72;;;;;;;-0.49;53.56;100947.19;6632947;26;34202;-80
2022/01/07 15:59:22;;;;;;;10.18;6.70;;;;;;;-0.58;53.89;100949.53;6641322;26;33329;-81
2022/01/07 16:02:26;;;;;;;11.35;7.10;;;;;;;-0.64;53.65;100937.53;6632151;26;34333;-81
2022/01/07 16:05:31;;;;;;;12.43;6.62;;;;;;;-0.69;54.53;100944.88;6631948;26;33989;-80
2022/01/07 16:08:33;;;;;;;12.20;6.78;;;;;;;-0.64;54.89;100937.53;6632015;26;33651;-80
2022/01/07 16:11:36;;;;;;;13.82;6.87;;;;;;;-0.69;54.78;100940.44;6640880;26;33141;-80
2022/01/07 16:14:39;;;;;;;12.07;6.72;;;;;;;-0.75;55.01;100947.91;6640311;26;33296;-80
2022/01/07 16:17:42;;;;;;;11.05;6.97;;;;;;;-0.78;55.65;100941.00;6632670;26;33512;-80
2022/01/07 16:20:44;;;;;;;13.62;7.35;;;;;;;-0.89;55.95;100950.50;6632646;26;33880;-80
2022/01/07 16:23:47;;;;;;;10.75;6.87;;;;;;;-0.94;56.16;100945.47;6632758;26;33609;-80
2022/01/07 16:26:50;;;;;;;12.70;7.28;;;;;;;-0.99;56.50;100943.13;6632588;26;33516;-80
2022/01/07 16:29:53;;;;;;;17.60;8.20;;;;;;;-0.98;56.92;100942.16;6632849;26;33424;-80
2022/01/07 16:32:55;;;;;;;14.52;8.27;;;;;;;-1.05;57.08;100939.97;6633298;26;33727;-80
2022/01/07 16:35:58;;;;;;;16.52;7.72;;;;;;;-1.11;57.24;100935.91;6634406;26;33622;-80
2022/01/07 16:39:01;;;;;;;15.43;7.97;;;;;;;-1.17;57.69;100942.41;6633828;26;34145;-80
2022/01/07 16:42:05;;;;;;;14.20;7.62;;;;;;;-1.20;58.22;100942.59;6635578;26;33260;-80
2022/01/07 16:45:08;;;;;;;17.42;9.10;;;;;;;-1.11;57.36;100932.41;6638333;26;34439;-80
2022/01/07 16:48:13;;;;;;;14.10;8.15;;;;;;;-1.13;58.08;100932.50;6638491;26;33373;-80
